Time;durP1;ratioP1;P1;durP2;ratioP2;P2;SDS_P1;SDS_P2;PMS_P1;PMS_P2;Temp;Humidity;BMP_temperature;BMP_pressure;BME280_temperature;BME280_humidity;BME280_pressure;Samples;Min_cycle;Max_cycle;Signal;HPM_P1;HPM_P2
2022/03/12 00:01:31;;;;;;;20.88;12.07;;;4.30;55.30;;;3.06;47.98;97429.25;5011298;28;20409;-78
2022/03/12 00:03:59;;;;;;;20.23;12.47;;;4.20;55.50;;;2.98;48.19;97431.25;5011653;28;20490;-79
2022/03/12 00:06:25;;;;;;;20.50;12.13;;;4.20;55.60;;;2.99;48.29;97433.69;5026924;28;20906;-78
2022/03/12 00:08:53;;;;;;;20.67;12.27;;;4.20;56.10;;;2.96;47.98;97439.31;5011977;28;20416;-79
2022/03/12 00:11:23;;;;;;;19.92;12.10;;;4.20;56.20;;;2.91;48.72;97433.88;5011119;28;20973;-78
2022/03/12 00:13:52;;;;;;;23.65;13.02;;;4.10;56.80;;;2.88;48.85;97433.47;5011656;28;20463;-78
2022/03/12 00:16:25;;;;;;;21.38;12.35;;;4.00;56.90;;;2.87;48.62;97437.06;5011744;28;20451;-78
2022/03/12 00:18:55;;;;;;;19.70;11.90;;;4.00;56.60;;;2.91;48.65;97439.09;5010059;28;20404;-79
2022/03/12 00:21:22;;;;;;;23.33;13.40;;;4.00;56.80;;;2.94;48.44;97445.72;5010568;28;20536;-79
2022/03/12 00:23:50;;;;;;;23.77;13.35;;;4.10;56.60;;;2.88;49.19;97454.38;5010152;28;20522;-79
2022/03/12 00:26:16;;;;;;;22.73;12.90;;;4.00;57.10;;;2.95;49.12;97453.38;5011234;28;20928;-79
2022/03/12 00:28:43;;;;;;;22.17;12.68;;;4.10;57.10;;;3.02;48.48;97454.19;5011204;28;20825;-78
2022/03/12 00:31:11;;;;;;;23.40;11.82;;;4.20;56.80;;;3.05;48.39;97452.97;5011281;28;20404;-79
2022/03/12 00:33:37;;;;;;;24.15;12.23;;;4.30;56.50;;;3.16;47.87;97446.34;5011612;28;20409;-79
2022/03/12 00:36:04;;;;;;;22.38;13.23;;;4.30;56.00;;;3.23;47.75;97441.91;5011455;28;20408;-79
2022/03/12 00:38:30;;;;;;;18.33;11.30;;;4.40;55.90;;;3.18;48.04;97445.13;5011362;28;20427;-79
2022/03/12 00:40:56;;;;;;;19.65;11.18;;;4.40;55.90;;;3.13;48.25;97450.16;5011107;28;20758;-79
2022/03/12 00:43:23;;;;;;;18.10;11.20;;;4.30;56.10;;;3.13;48.68;97450.16;5011494;28;20419;-79
2022/03/12 00:45:49;;;;;;;17.75;10.50;;;4.40;56.30;;;3.09;48.05;97452.38;5026587;28;20409;-78
2022/03/12 00:48:17;;;;;;;22.33;12.52;;;4.40;56.20;;;3.18;48.66;97458.19;5011466;28;20443;-78
2022/03/12 00:50:43;;;;;;;25.98;13.45;;;4.40;56.50;;;3.17;49.04;97450.53;5011203;28;20407;-81
2022/03/12 00:53:09;;;;;;;20.77;12.40;;;4.30;56.90;;;3.12;49.06;97451.16;5011650;28;20474;-78
2022/03/12 00:55:35;;;;;;;23.02;12.95;;;4.30;56.90;;;3.14;49.71;97443.94;5011302;28;20789;-79
2022/03/12 00:58:02;;;;;;;22.48;12.02;;;4.30;57.40;;;3.09;49.11;97444.53;5008555;28;20404;-79
2022/03/12 01:00:29;;;;;;;21.25;12.15;;;4.30;57.30;;;3.02;49.51;97443.72;5006351;28;20408;-78
2022/03/12 01:02:55;;;;;;;24.27;13.27;;;4.20;57.20;;;3.01;49.69;97436.88;5010780;28;20400;-78
2022/03/12 01:05:39;;;;;;;20.77;12.00;;;4.20;57.60;;;2.99;49.24;97436.28;5010678;28;20474;-78
2022/03/12 01:08:05;;;;;;;21.30;13.23;;;4.20;58.00;;;3.02;49.38;97435.88;5011202;28;20413;-79
2022/03/12 01:10:31;;;;;;;18.50;11.90;;;4.20;57.50;;;3.01;49.20;97444.72;5012734;28;20794;-78
2022/03/12 01:12:57;;;;;;;23.80;12.47;;;4.20;57.50;;;3.04;49.75;97444.34;5010998;28;20404;-79
2022/03/12 01:15:24;;;;;;;25.60;12.65;;;4.20;57.60;;;3.06;49.64;97441.53;5010614;28;20971;-79
2022/03/12 01:17:50;;;;;;;27.50;13.35;;;4.20;57.60;;;3.10;49.54;97435.66;5010540;28;20421;-79
2022/03/12 01:20:24;;;;;;;21.92;13.05;;;4.20;57.60;;;3.10;49.41;97429.63;5010248;28;20554;-78
2022/03/12 01:22:51;;;;;;;24.08;12.55;;;4.20;57.60;;;3.09;49.38;97435.88;5010443;28;20850;-78
2022/03/12 01:25:17;;;;;;;19.98;11.95;;;4.30;57.50;;;3.06;49.53;97436.28;5010664;28;20413;-78
2022/03/12 01:27:43;;;;;;;16.75;10.98;;;4.30;57.50;;;3.05;49.65;97434.69;5010241;28;21036;-78
2022/03/12 01:30:10;;;;;;;23.10;12.18;;;4.30;57.50;;;3.13;49.69;97436.28;5009131;28;20416;-78
2022/03/12 01:32:37;;;;;;;20.02;11.57;;;4.30;57.80;;;3.06;49.62;97437.09;5009373;28;20408;-78
2022/03/12 01:35:05;;;;;;;22.25;12.77;;;4.30;57.60;;;3.08;49.66;97429.84;5013863;28;20525;-78
2022/03/12 01:37:32;;;;;;;21.67;13.00;;;4.30;57.70;;;3.09;49.84;97441.09;5014065;28;20462;-79
2022/03/12 01:39:58;;;;;;;24.10;13.27;;;4.30;57.90;;;3.08;50.10;97445.53;5014070;28;20396;-78
2022/03/12 01:42:27;;;;;;;19.30;11.55;;;4.30;58.20;;;3.06;50.45;97449.38;5013781;28;20400;-78
2022/03/12 01:44:54;;;;;;;21.55;12.27;;;4.30;58.20;;;3.03;49.84;97444.53;5013928;28;20488;-78
2022/03/12 01:47:21;;;;;;;26.95;14.00;;;4.30;58.20;;;3.09;49.91;97447.13;5005633;28;20930;-79
2022/03/12 01:49:48;;;;;;;19.48;11.82;;;4.20;58.00;;;3.01;50.04;97447.34;5013782;28;20404;-79
2022/03/12 01:52:15;;;;;;;21.00;12.55;;;4.30;58.00;;;3.13;49.92;97438.91;5013562;28;20401;-79
2022/03/12 01:54:42;;;;;;;20.93;12.30;;;4.30;58.20;;;3.07;50.04;97437.91;5013939;28;20775;-79
2022/03/12 01:57:09;;;;;;;23.77;12.77;;;4.20;58.10;;;3.14;48.73;97427.44;5013597;28;20404;-79
2022/03/12 01:59:35;;;;;;;16.50;10.35;;;4.30;57.40;;;3.11;49.27;97431.25;5013540;28;20411;-79
2022/03/12 02:02:02;;;;;;;15.48;10.15;;;4.30;57.50;;;3.17;49.09;97433.03;5013575;28;20507;-79
2022/03/12 02:04:29;;;;;;;19.15;11.73;;;4.40;57.40;;;3.27;49.29;97433.44;5013862;28;20953;-78
2022/03/12 02:06:58;;;;;;;17.83;10.55;;;4.40;57.40;;;3.28;49.08;97426.41;5013485;28;20792;-78
2022/03/12 02:09:25;;;;;;;16.80;10.23;;;4.50;57.10;;;3.35;48.51;97432.44;5028691;28;20786;-79
2022/03/12 02:11:53;;;;;;;15.20;9.50;;;4.50;56.90;;;3.35;48.63;97435.03;5013180;28;20428;-78
2022/03/12 02:14:22;;;;;;;14.80;9.57;;;4.60;56.80;;;3.39;48.56;97433.63;5013591;28;20401;-79
2022/03/12 02:16:51;;;;;;;14.15;8.80;;;4.60;56.60;;;3.42;48.66;97434.03;5013083;28;20401;-79
2022/03/12 02:19:19;;;;;;;12.10;8.27;;;4.60;56.50;;;3.45;48.26;97425.78;5012987;28;20397;-78
2022/03/12 02:21:52;;;;;;;13.50;8.55;;;4.60;56.40;;;3.49;48.00;97429.59;5012670;28;20401;-79
2022/03/12 02:24:21;;;;;;;16.13;9.43;;;4.70;56.10;;;3.54;47.91;97436.81;5005812;28;20428;-79
2022/03/12 02:26:48;;;;;;;20.30;12.13;;;4.70;55.90;;;3.60;47.51;97438.63;5012996;28;20405;-79
2022/03/12 02:29:21;;;;;;;22.90;13.38;;;4.70;55.80;;;3.48;48.01;97455.94;5013186;28;20441;-79
2022/03/12 02:31:50;;;;;;;17.95;10.90;;;4.60;56.10;;;3.39;48.04;97460.59;5012923;28;20409;-78
2022/03/12 02:34:21;;;;;;;17.63;10.65;;;4.60;56.10;;;3.34;48.00;97451.75;5012718;28;20409;-78
2022/03/12 02:36:49;;;;;;;16.63;9.53;;;4.50;56.00;;;3.30;47.74;97451.38;5001430;28;20977;-79
2022/03/12 02:39:16;;;;;;;15.45;10.02;;;4.50;56.00;;;3.33;47.62;97447.53;5012705;28;20764;-79
2022/03/12 02:41:43;;;;;;;16.65;9.73;;;4.50;55.80;;;3.32;47.71;97454.56;5019365;28;20902;-78
2022/03/12 02:44:18;;;;;;;15.32;9.38;;;4.50;55.80;;;3.31;47.80;97457.38;5012411;28;20407;-78
2022/03/12 02:47:10;;;;;;;18.60;10.88;;;4.50;55.90;;;3.34;47.97;97451.75;5012774;28;20484;-79
2022/03/12 02:49:40;;;;;;;18.87;11.00;;;4.50;56.10;;;3.35;48.34;97450.75;5008150;28;20920;-78
2022/03/12 02:52:07;;;;;;;14.23;9.32;;;4.60;56.20;;;3.26;47.91;97455.38;5012787;28;20488;-78
2022/03/12 02:54:34;;;;;;;22.50;11.45;;;4.50;56.10;;;3.29;48.48;97462.03;5013326;28;20416;-78
2022/03/12 02:57:02;;;;;;;21.33;12.35;;;4.40;56.30;;;3.24;48.94;97457.38;5013315;28;20475;-79
2022/03/12 02:59:28;;;;;;;18.08;10.68;;;4.40;56.90;;;3.17;48.74;97453.97;5012799;28;20448;-79
2022/03/12 03:02:00;;;;;;;19.95;11.82;;;4.40;56.80;;;3.17;48.99;97455.78;5012666;28;20454;-79
2022/03/12 03:04:26;;;;;;;17.15;10.60;;;4.30;57.10;;;3.11;48.91;97467.84;5013175;28;20901;-78
2022/03/12 03:06:52;;;;;;;20.80;10.38;;;4.30;57.10;;;3.05;48.96;97461.63;5013011;28;20404;-78
2022/03/12 03:09:18;;;;;;;19.42;10.57;;;4.30;57.30;;;3.03;49.56;97465.44;5012661;28;20463;-78
2022/03/12 03:11:44;;;;;;;21.25;11.15;;;4.20;57.40;;;3.06;48.85;97473.72;5012679;28;20401;-78
2022/03/12 03:14:11;;;;;;;17.87;10.13;;;4.30;57.30;;;2.98;49.09;97471.28;5012913;28;20408;-79
2022/03/12 03:16:38;;;;;;;16.48;10.43;;;4.20;57.00;;;2.99;49.24;97465.06;5012381;28;20401;-78
2022/03/12 03:19:04;;;;;;;17.40;10.70;;;4.20;57.30;;;2.97;49.09;97476.72;5012249;28;20551;-78
2022/03/12 03:21:30;;;;;;;19.00;11.15;;;4.20;58.10;;;3.01;49.47;97480.53;5012125;28;20435;-79
2022/03/12 03:23:56;;;;;;;20.10;11.98;;;4.20;57.50;;;2.97;49.44;97485.38;5011803;28;20408;-79
2022/03/12 03:26:50;;;;;;;17.92;10.80;;;4.10;57.50;;;2.83;49.71;97488.97;5011889;28;20405;-79
2022/03/12 03:29:19;;;;;;;18.88;10.43;;;4.10;57.80;;;2.83;49.53;97481.13;5012074;28;20404;-79
2022/03/12 03:31:46;;;;;;;18.63;10.43;;;4.00;57.90;;;2.86;49.71;97485.13;5012156;28;20412;-79
2022/03/12 03:34:12;;;;;;;19.25;10.88;;;4.00;58.00;;;2.82;49.68;97487.34;5012486;28;20833;-78
2022/03/12 03:36:38;;;;;;;18.80;11.32;;;4.00;57.70;;;2.82;50.42;97487.34;5012325;28;20427;-78
2022/03/12 03:39:06;;;;;;;21.33;11.82;;;3.90;58.40;;;2.80;50.17;97496.38;5012110;28;20409;-78
2022/03/12 03:41:33;;;;;;;17.87;10.67;;;4.00;58.40;;;2.69;50.46;97500.41;5011852;28;20487;-78
2022/03/12 03:44:00;;;;;;;20.33;11.18;;;3.90;58.30;;;2.71;49.94;97490.53;5012071;28;20401;-78
2022/03/12 03:46:27;;;;;;;20.50;11.43;;;3.90;58.30;;;2.73;50.60;97499.00;5011940;28;20412;-79
2022/03/12 03:48:54;;;;;;;20.08;11.85;;;3.90;58.80;;;2.66;50.38;97496.38;5011615;28;20930;-78
2022/03/12 03:51:21;;;;;;;22.83;11.57;;;3.90;58.70;;;2.62;50.51;97492.56;5011461;28;20409;-78
2022/03/12 03:53:47;;;;;;;19.63;11.20;;;3.80;58.60;;;2.58;50.55;97496.56;5011791;28;20492;-78
2022/03/12 03:56:14;;;;;;;19.88;11.13;;;3.80;58.70;;;2.59;51.07;97498.16;5011534;28;20823;-78
2022/03/12 03:58:40;;;;;;;20.55;11.50;;;3.70;59.00;;;2.58;50.97;97501.78;5011768;28;20759;-78
2022/03/12 04:01:12;;;;;;;26.08;12.07;;;3.70;59.10;;;2.56;50.23;97505.59;5011480;28;20412;-78
2022/03/12 04:03:44;;;;;;;17.13;10.27;;;3.70;58.60;;;2.42;50.94;97502.13;5012062;28;20576;-79
2022/03/12 04:06:11;;;;;;;16.23;10.20;;;3.70;59.00;;;2.30;50.60;97506.31;5012041;28;20412;-79
2022/03/12 04:08:37;;;;;;;20.15;10.93;;;3.60;59.00;;;2.38;51.26;97507.97;5011813;28;20782;-79
2022/03/12 04:11:06;;;;;;;16.43;10.37;;;3.60;59.40;;;2.21;50.98;97505.69;5006847;28;20421;-78
2022/03/12 04:13:34;;;;;;;20.00;12.05;;;3.50;59.20;;;2.24;51.12;97512.34;5007170;28;20451;-78
2022/03/12 04:16:01;;;;;;;17.40;10.40;;;3.50;59.20;;;2.10;51.67;97498.44;5012098;28;20401;-78
2022/03/12 04:18:29;;;;;;;20.42;11.25;;;3.40;59.30;;;2.16;51.34;97507.28;5012547;28;20405;-78
2022/03/12 04:20:57;;;;;;;20.52;11.88;;;3.40;59.40;;;2.09;51.59;97506.44;5012434;28;20571;-78
2022/03/12 04:23:24;;;;;;;22.10;11.63;;;3.30;59.60;;;2.06;52.33;97502.41;5011514;28;20801;-78
2022/03/12 04:25:53;;;;;;;17.35;9.80;;;3.30;60.20;;;1.89;51.76;97499.31;5011269;28;20447;-77
2022/03/12 04:28:20;;;;;;;16.27;9.90;;;3.20;60.00;;;1.89;52.21;97501.09;5026303;28;20833;-79
2022/03/12 04:30:47;;;;;;;15.73;10.02;;;3.20;60.20;;;1.91;52.19;97501.72;5010747;28;20471;-79
2022/03/12 04:33:14;;;;;;;15.95;9.90;;;3.20;60.40;;;1.90;51.76;97503.53;5011211;28;20412;-79
2022/03/12 04:35:41;;;;;;;19.42;10.65;;;3.20;60.10;;;2.00;51.96;97507.59;5011100;28;20902;-80
2022/03/12 04:38:09;;;;;;;20.73;11.50;;;3.30;60.30;;;2.00;52.28;97511.03;5010997;28;20409;-79
2022/03/12 04:40:38;;;;;;;19.35;11.85;;;3.20;60.70;;;2.03;52.57;97512.44;5010507;28;20412;-79
2022/03/12 04:43:06;;;;;;;18.15;10.57;;;3.20;61.20;;;1.95;52.40;97511.59;5011186;28;20882;-79
2022/03/12 04:45:33;;;;;;;15.55;10.02;;;3.20;60.90;;;2.00;52.31;97508.41;5011141;28;20401;-77
2022/03/12 04:47:59;;;;;;;20.35;11.55;;;3.20;60.90;;;2.08;52.23;97510.06;5010719;28;20915;-78
2022/03/12 04:50:25;;;;;;;20.65;11.55;;;3.30;60.90;;;2.17;52.82;97527.16;5010542;28;20408;-79
2022/03/12 04:52:56;;;;;;;14.63;9.77;;;3.40;61.10;;;2.18;52.14;97526.19;5010911;28;20470;-78
2022/03/12 04:55:26;;;;;;;17.20;10.35;;;3.40;60.80;;;2.26;51.79;97526.78;5010880;28;20401;-79
2022/03/12 04:57:53;;;;;;;17.92;10.57;;;3.50;60.50;;;2.35;52.01;97524.81;5010688;28;20580;-79
2022/03/12 05:00:25;;;;;;;16.05;9.93;;;3.50;60.50;;;2.34;51.63;97526.63;4997852;28;20413;-78
2022/03/12 05:02:54;;;;;;;15.77;9.85;;;3.50;60.10;;;2.39;51.82;97530.47;5010699;28;20405;-79
2022/03/12 05:05:21;;;;;;;17.38;9.65;;;3.60;60.10;;;2.44;51.54;97534.09;5010482;28;20409;-78
2022/03/12 05:07:48;;;;;;;15.30;9.82;;;3.60;59.90;;;2.47;51.65;97536.34;5010082;28;20435;-78
2022/03/12 05:10:19;;;;;;;16.95;10.73;;;3.70;59.90;;;2.50;51.23;97548.19;5009847;28;20452;-78
2022/03/12 05:12:50;;;;;;;17.52;10.35;;;3.70;59.80;;;2.51;51.79;97552.41;5010274;28;20778;-78
2022/03/12 05:15:17;;;;;;;19.60;11.00;;;3.70;60.10;;;2.53;51.72;97560.88;5010291;28;20450;-78
2022/03/12 05:17:48;;;;;;;15.18;9.85;;;3.70;60.00;;;2.51;51.58;97562.84;5010151;28;20890;-79
2022/03/12 05:20:21;;;;;;;14.90;9.30;;;3.70;60.00;;;2.53;51.39;97561.66;5002025;28;20931;-78
2022/03/12 05:22:47;;;;;;;17.05;9.82;;;3.80;59.90;;;2.62;51.65;97570.16;5010558;28;20397;-78
2022/03/12 05:25:13;;;;;;;14.02;9.27;;;3.80;59.90;;;2.60;51.40;97572.16;5010326;28;20440;-77
2022/03/12 05:27:39;;;;;;;13.07;8.63;;;3.80;60.30;;;2.63;51.57;97569.16;5009246;28;20508;-77
2022/03/12 05:30:09;;;;;;;13.90;8.93;;;3.80;60.30;;;2.67;51.21;97575.59;5010178;28;20528;-79
2022/03/12 05:32:35;;;;;;;16.77;9.90;;;3.90;59.60;;;2.70;51.26;97572.59;5010290;28;20500;-79
2022/03/12 05:35:01;;;;;;;19.57;11.23;;;3.90;59.80;;;2.75;51.32;97582.44;5010234;28;20551;-79
2022/03/12 05:37:28;;;;;;;14.65;9.13;;;3.90;59.80;;;2.71;51.11;97574.19;5010251;28;20496;-80
2022/03/12 05:39:55;;;;;;;17.57;9.63;;;3.90;59.60;;;2.77;51.32;97580.44;5010291;28;20418;-80
2022/03/12 05:42:22;;;;;;;14.60;8.70;;;3.90;59.60;;;2.78;50.97;97569.00;5010663;28;20411;-78
2022/03/12 05:44:49;;;;;;;15.38;8.63;;;4.00;59.40;;;2.76;51.09;97568.38;5010232;28;20462;-78
2022/03/12 05:47:17;;;;;;;15.07;9.50;;;3.90;59.40;;;2.77;51.20;97576.03;5009717;28;20413;-78
2022/03/12 05:49:43;;;;;;;19.55;10.80;;;4.00;59.40;;;2.80;51.01;97580.03;5010105;28;20459;-77
2022/03/12 05:52:09;;;;;;;17.80;10.30;;;3.90;59.30;;;2.73;51.11;97572.19;5009663;28;20417;-78
2022/03/12 05:54:36;;;;;;;15.05;9.27;;;3.90;59.40;;;2.67;51.10;97579.00;5010346;28;20411;-77
2022/03/12 05:57:02;;;;;;;16.15;9.90;;;3.90;59.50;;;2.67;51.12;97575.59;5040696;22;20434;-77
2022/03/12 05:59:29;;;;;;;15.73;9.18;;;3.90;59.40;;;2.65;50.92;97582.81;5028340;28;20399;-77
2022/03/12 06:01:55;;;;;;;12.20;8.07;;;3.90;59.40;;;2.64;50.88;97587.22;5029203;28;20403;-77
2022/03/12 06:04:29;;;;;;;13.23;8.15;;;3.90;59.40;;;2.68;51.25;97590.28;5029614;28;20446;-77
2022/03/12 06:06:55;;;;;;;20.23;11.05;;;3.90;59.40;;;2.73;49.14;97599.13;5029512;28;20406;-77
2022/03/12 06:09:22;;;;;;;19.35;10.40;;;3.90;58.20;;;2.79;48.74;97600.13;5044368;28;20924;-79
2022/03/12 06:11:51;;;;;;;20.10;10.52;;;4.00;57.20;;;2.84;48.07;97599.56;5022627;28;20430;-76
2022/03/12 06:14:17;;;;;;;15.40;10.02;;;4.00;56.80;;;2.80;48.59;97604.38;5020229;28;20411;-76
2022/03/12 06:16:48;;;;;;;13.02;9.00;;;4.00;56.90;;;2.79;48.75;97602.75;5026130;28;20957;-76
2022/03/12 06:19:16;;;;;;;11.82;7.90;;;4.00;57.10;;;2.81;49.23;97607.78;5022815;28;20782;-76
2022/03/12 06:21:43;;;;;;;15.75;8.23;;;4.00;57.30;;;2.88;48.54;97598.16;5022466;28;20436;-76
2022/03/12 06:24:09;;;;;;;14.18;7.70;;;4.10;57.00;;;2.89;48.85;97599.78;5024734;28;20768;-78
2022/03/12 06:26:36;;;;;;;13.30;8.40;;;4.10;56.90;;;2.97;48.30;97604.84;5027880;28;20442;-76
2022/03/12 06:29:04;;;;;;;21.48;10.10;;;4.10;56.50;;;3.01;48.23;97608.66;5031805;28;20771;-76
2022/03/12 06:31:32;;;;;;;17.63;9.50;;;4.10;56.70;;;2.99;48.35;97610.69;5032568;28;20400;-75
2022/03/12 06:33:58;;;;;;;16.08;8.82;;;4.10;56.80;;;2.97;48.37;97613.47;5031506;28;20797;-76
2022/03/12 06:36:25;;;;;;;13.38;8.38;;;4.10;56.80;;;3.00;48.63;97615.72;5032174;28;20443;-75
2022/03/12 06:38:52;;;;;;;12.00;7.90;;;4.10;56.90;;;3.03;48.38;97615.31;5032545;28;20760;-76
2022/03/12 06:41:19;;;;;;;15.48;9.23;;;4.20;56.90;;;3.11;48.91;97612.50;5036580;28;20414;-75
2022/03/12 06:43:46;;;;;;;11.07;7.63;;;4.20;57.10;;;3.13;48.78;97608.91;5032817;28;20430;-73
2022/03/12 06:46:16;;;;;;;11.60;7.60;;;4.30;57.00;;;3.17;48.40;97613.53;5032803;28;20465;-74
2022/03/12 06:48:42;;;;;;;13.55;7.47;;;4.30;56.90;;;3.22;48.29;97615.56;5032533;28;20863;-76
2022/03/12 06:51:10;;;;;;;11.50;7.60;;;4.40;56.60;;;3.26;47.85;97620.19;5032094;28;20403;-76
2022/03/12 06:53:36;;;;;;;17.20;9.18;;;4.40;56.20;;;3.32;45.83;97616.75;5032687;28;20416;-76
2022/03/12 06:56:05;;;;;;;18.00;9.05;;;4.40;54.20;;;3.34;45.26;97620.00;5032301;28;20797;-75
2022/03/12 06:58:31;;;;;;;13.85;8.00;;;4.50;53.50;;;3.38;45.58;97623.81;5032577;28;20453;-76
2022/03/12 07:00:57;;;;;;;10.73;7.57;;;4.50;53.90;;;3.46;45.73;97625.44;5025826;28;20478;-74
2022/03/12 07:03:23;;;;;;;11.95;7.78;;;4.60;53.80;;;3.54;45.48;97616.56;5029645;28;20422;-74
2022/03/12 07:05:49;;;;;;;11.13;6.93;;;4.70;53.50;;;3.61;45.29;97625.28;5026559;28;20502;-76
2022/03/12 07:08:15;;;;;;;14.55;8.32;;;4.70;53.50;;;3.69;45.13;97623.22;5025311;28;20533;-75
2022/03/12 07:10:41;;;;;;;15.90;8.70;;;4.80;53.50;;;3.73;44.13;97624.47;5026701;28;20694;-76
2022/03/12 07:13:09;;;;;;;18.80;10.05;;;4.80;52.60;;;3.68;43.36;97623.47;5031946;28;20784;-77
2022/03/12 07:15:35;;;;;;;15.70;8.93;;;4.80;51.60;;;3.72;44.05;97625.47;5032227;28;20465;-76
2022/03/12 07:18:00;;;;;;;11.82;7.63;;;4.80;51.90;;;3.77;43.97;97627.47;5032067;28;20403;-76
2022/03/12 07:20:26;;;;;;;12.65;7.35;;;4.90;52.00;;;3.86;44.41;97634.13;5031543;28;20405;-76
2022/03/12 07:22:52;;;;;;;10.68;7.10;;;5.00;52.20;;;3.93;44.18;97629.69;5032089;28;20746;-76
2022/03/12 07:25:18;;;;;;;11.73;7.82;;;5.00;52.30;;;4.00;44.16;97627.03;5031957;28;20410;-77
2022/03/12 07:27:45;;;;;;;17.85;9.20;;;5.10;52.20;;;4.04;44.09;97631.69;5031758;28;20426;-76
2022/03/12 07:30:15;;;;;;;15.95;8.73;;;5.20;52.00;;;4.06;43.07;97634.88;5017590;28;20415;-77
2022/03/12 07:32:42;;;;;;;12.75;8.25;;;5.10;51.10;;;4.11;43.44;97635.09;5011911;28;20401;-76
2022/03/12 07:35:11;;;;;;;11.85;7.78;;;5.20;51.30;;;4.17;43.47;97638.72;5014461;28;20411;-76
2022/03/12 07:37:37;;;;;;;12.30;7.68;;;5.20;51.40;;;4.24;43.43;97632.47;5021339;28;20541;-81
2022/03/12 07:40:05;;;;;;;12.18;7.65;;;5.30;51.50;;;4.29;43.21;97631.84;5022170;28;20407;-77
2022/03/12 07:42:30;;;;;;;16.55;10.00;;;5.40;51.40;;;4.32;42.71;97634.06;5022150;28;20754;-76
2022/03/12 07:44:56;;;;;;;17.10;9.10;;;5.40;50.50;;;4.36;42.74;97640.47;5024647;28;20418;-76
2022/03/12 07:47:24;;;;;;;14.25;9.45;;;5.40;50.50;;;4.40;42.19;97635.66;5023488;28;20414;-76
2022/03/12 07:49:50;;;;;;;14.38;8.75;;;5.40;50.10;;;4.47;42.51;97639.88;5019981;28;20409;-74
2022/03/12 07:52:16;;;;;;;13.05;8.00;;;5.50;50.30;;;4.54;42.66;97645.91;5030197;28;20460;-76
2022/03/12 07:54:43;;;;;;;11.02;7.03;;;5.60;50.40;;;4.61;42.64;97644.06;5031691;28;20399;-77
2022/03/12 07:57:09;;;;;;;13.50;7.97;;;5.70;50.40;;;4.70;42.83;97643.84;5031383;28;20408;-75
2022/03/12 07:59:35;;;;;;;15.82;9.63;;;5.70;50.50;;;4.77;42.45;97647.22;5031218;28;20761;-75
2022/03/12 08:02:02;;;;;;;12.45;7.78;;;5.80;50.30;;;4.86;42.41;97649.44;5022999;28;20435;-84
2022/03/12 08:04:32;;;;;;;13.63;8.30;;;5.90;50.30;;;4.97;42.44;97648.75;5031425;28;20403;-76
2022/03/12 08:07:00;;;;;;;11.75;8.02;;;6.00;50.20;;;5.08;42.31;97642.06;5031123;28;20396;-75
2022/03/12 08:09:27;;;;;;;15.63;8.20;;;6.10;50.10;;;5.21;42.28;97641.16;5031361;28;20830;-76
2022/03/12 08:11:53;;;;;;;12.55;8.25;;;6.20;50.00;;;5.31;42.22;97638.91;5015916;28;20434;-77
2022/03/12 08:14:22;;;;;;;14.05;8.95;;;6.30;50.00;;;5.39;41.75;97634.22;5019943;28;20512;-76
2022/03/12 08:16:50;;;;;;;14.25;8.07;;;6.40;49.60;;;5.50;41.76;97630.09;5021029;28;20471;-74
2022/03/12 08:19:16;;;;;;;11.70;8.13;;;6.50;49.50;;;5.56;41.29;97637.13;5014167;28;20408;-77
2022/03/12 08:21:45;;;;;;;13.98;8.52;;;6.60;49.20;;;5.66;41.18;97632.19;5025372;28;20418;-76
2022/03/12 08:24:15;;;;;;;14.40;8.20;;;6.70;49.10;;;5.75;41.12;97628.28;5013749;28;20446;-76
2022/03/12 08:26:42;;;;;;;15.20;8.53;;;6.80;49.00;;;5.85;41.05;97635.69;5010849;28;20415;-77
2022/03/12 08:29:11;;;;;;;21.70;11.60;;;6.80;48.80;;;5.92;40.62;97640.94;5011169;28;20508;-77
2022/03/12 08:31:38;;;;;;;14.38;8.95;;;6.90;48.30;;;6.06;40.86;97632.72;5023197;28;20465;-77
2022/03/12 08:34:04;;;;;;;21.93;11.17;;;7.00;48.40;;;6.11;40.10;97639.94;5030149;28;20403;-78
2022/03/12 08:36:30;;;;;;;19.30;11.20;;;7.10;47.60;;;6.19;39.90;97637.03;5028774;28;20830;-79
2022/03/12 08:38:58;;;;;;;21.17;12.75;;;7.20;47.50;;;6.25;39.67;97635.34;5029753;28;20414;-81
2022/03/12 08:41:25;;;;;;;15.57;10.85;;;7.30;47.20;;;6.39;39.83;97637.63;5029904;28;20406;-81
2022/03/12 08:43:51;;;;;;;19.02;11.43;;;7.40;47.40;;;6.49;39.75;97634.50;5030951;28;20403;-76
2022/03/12 08:46:18;;;;;;;17.15;10.07;;;7.50;47.30;;;6.59;39.69;97635.63;5030628;28;20415;-76
2022/03/12 08:48:45;;;;;;;17.80;9.70;;;7.60;47.20;;;6.73;39.57;97632.84;5030636;28;20477;-76
2022/03/12 08:51:11;;;;;;;17.10;10.48;;;7.70;47.00;;;6.83;39.26;97639.19;5030073;28;20938;-76
2022/03/12 08:53:38;;;;;;;28.63;13.15;;;7.80;46.80;;;6.90;39.17;97631.22;5030438;28;20494;-78
2022/03/12 08:56:05;;;;;;;21.00;12.18;;;7.90;46.70;;;6.93;38.78;97636.84;5030515;28;20469;-79
2022/03/12 08:58:32;;;;;;;17.65;11.00;;;7.90;46.00;;;7.06;38.82;97637.72;5032159;28;20764;-77
2022/03/12 09:01:02;;;;;;;23.80;12.85;;;8.00;46.40;;;7.10;38.71;97639.66;5038094;28;20409;-77
2022/03/12 09:03:30;;;;;;;19.77;11.33;;;8.10;46.00;;;7.21;38.72;97635.47;5036383;28;20925;-77
2022/03/12 09:05:56;;;;;;;23.52;12.73;;;8.20;46.20;;;7.25;38.78;97640.06;5030167;28;20960;-78
2022/03/12 09:08:22;;;;;;;21.20;12.82;;;8.20;46.10;;;7.36;38.39;97641.16;5030325;28;21582;-79
2022/03/12 09:10:49;;;;;;;21.48;11.30;;;8.30;45.70;;;7.45;38.49;97641.59;5029537;28;20440;-77
2022/03/12 09:13:18;;;;;;;15.60;9.65;;;8.40;45.80;;;7.61;38.40;97640.97;5030431;28;20406;-78
2022/03/12 09:15:44;;;;;;;19.75;11.52;;;8.50;45.80;;;7.70;38.18;97635.16;5030126;28;20456;-78
2022/03/12 09:18:11;;;;;;;22.23;12.53;;;8.60;45.60;;;7.80;37.93;97639.06;5026308;28;20411;-80
2022/03/12 09:20:44;;;;;;;20.35;11.70;;;8.70;45.10;;;7.93;37.86;97644.13;5024777;28;20410;-77
2022/03/12 09:23:11;;;;;;;25.43;13.13;;;8.80;45.00;;;8.03;37.61;97645.19;5030291;28;20438;-77
2022/03/12 09:25:37;;;;;;;26.27;13.90;;;8.90;44.80;;;8.11;36.98;97646.69;5030050;28;20410;-78
2022/03/12 09:28:04;;;;;;;20.25;11.73;;;9.00;44.00;;;8.24;37.30;97635.09;5029971;28;20430;-78
2022/03/12 09:30:31;;;;;;;18.17;11.00;;;9.10;44.40;;;8.37;37.23;97633.06;5029524;28;20411;-76
2022/03/12 09:32:57;;;;;;;21.35;12.45;;;9.30;44.50;;;8.46;36.82;97641.41;5030046;28;20414;-77
2022/03/12 09:35:24;;;;;;;20.42;13.25;;;9.40;44.40;;;8.62;37.24;97642.56;5029922;28;20411;-77
2022/03/12 09:37:50;;;;;;;20.98;10.88;;;9.50;44.50;;;8.77;37.12;97643.69;5025967;28;20430;-77
2022/03/12 09:40:16;;;;;;;17.45;10.60;;;9.60;44.30;;;8.90;37.32;97645.25;5026663;28;20403;-74
2022/03/12 09:42:42;;;;;;;18.83;10.88;;;9.80;44.50;;;9.02;37.39;97642.59;5028959;28;20482;-76
2022/03/12 09:45:11;;;;;;;18.42;10.80;;;9.90;44.60;;;9.13;36.93;97641.72;5027915;28;20472;-76
2022/03/12 09:47:39;;;;;;;17.25;10.63;;;10.00;44.40;;;9.23;36.71;97645.38;5024298;28;20434;-76
2022/03/12 09:50:06;;;;;;;20.02;11.80;;;10.10;44.10;;;9.30;36.69;97645.22;5029717;28;20429;-76
2022/03/12 09:52:32;;;;;;;17.40;10.23;;;10.10;43.60;;;9.44;36.75;97640.47;5029667;28;20410;-76
2022/03/12 09:54:58;;;;;;;18.30;11.80;;;10.30;43.90;;;9.53;36.32;97633.75;5032263;28;20414;-76
2022/03/12 09:57:25;;;;;;;17.23;10.60;;;10.40;43.30;;;9.67;36.23;97640.34;5027145;28;20414;-74
2022/03/12 09:59:51;;;;;;;20.48;10.88;;;10.50;43.40;;;9.83;36.20;97630.81;5033210;28;20892;-76
2022/03/12 10:02:16;;;;;;;18.27;11.63;;;10.60;44.00;;;10.00;36.31;97637.69;5033050;28;20872;-77
2022/03/12 10:04:45;;;;;;;17.52;10.93;;;10.80;43.50;;;10.29;36.15;97633.16;5033371;28;20411;-76
2022/03/12 10:07:11;;;;;;;14.07;9.32;;;11.00;43.40;;;10.72;35.82;97627.13;5033507;28;20765;-81
2022/03/12 10:09:37;;;;;;;18.45;10.02;;;11.40;43.30;;;11.36;35.03;97629.16;5033411;28;20466;-80
2022/03/12 10:12:05;;;;;;;19.40;10.23;;;12.00;42.60;;;12.17;33.56;97628.06;5033223;28;20465;-80
2022/03/12 10:14:31;;;;;;;18.27;10.00;;;13.00;41.20;;;13.11;32.61;97635.97;5031964;28;20446;-79
2022/03/12 10:17:00;;;;;;;16.90;10.23;;;14.00;39.40;;;14.04;30.96;97629.75;5028064;28;20436;-80
2022/03/12 10:19:26;;;;;;;16.27;11.02;;;15.00;37.60;;;14.85;29.61;97624.31;5028342;28;20416;-81
2022/03/12 10:21:54;;;;;;;18.42;10.38;;;15.80;35.50;;;15.51;28.75;97622.09;5032818;28;20399;-77